Davis Monthan Air Force Base
KDMA : now visible

Airfield :











YOU CAN JOIN US ON...

 
LOGIN :

Register | Disclaimer

   EN    FR    IT 

 









Legend :    VFR   Marginal VFR   IFR   Intensive IFR   Very Intensive IFR
Visi :
Ceiling :
>= 8 km
>= 3000ft
5 to 8 km
1000 to 3000 ft
1500m to 5 km
500 to 1000 ft
800 to 1500m
200 to 500 ft
< 800m
< 200 ft
Symbols :   Thunderstorms  Fog  Heavy snow  Heavy precipitations  Wind > 20 kt







- Airport Elevation : 2704 ft


KDMA - Davis Monthan Air Force Base

CURRENT METAR :
  • 180956Z AUTO 13005KT 10SM CLR 27/16 A3000 RMK AO2 SLP109 T02660159 $

EXPIRED METARs :
  • 180856Z AUTO 12006KT 10SM CLR 27/15 A3000 RMK AO2 SLP110 T02740151 57008 $
  • 180756Z AUTO 13006KT 10SM CLR 28/15 A3001 RMK AO2 SLP112 T02810147 $

TAF TAF KDMA
Valid from the 18 at 06:00 until the 19 at 12:00 UTC


180605Z 1806/1912 16009KT 9999 SCT160 QNH3000INS
BECMG 1809/1810 VRB06KT 9999 SCT140 QNH3000INS
BECMG 1818/1819 29012G18KT 9999 FEW100 SCT150 QNH2986INS
BECMG 1902/1903 14009KT 9999 SCT120 QNH2991INS TX37/1822Z TN24/1812Z
KZAB FIR / North America



MET'MAP, your aeronautical weather chart ! - Copyright ORBIFLY December 2007 - Disclaimer

ORBIFLY MET'MAP TEAM :

Programming & Development : Alexandra Zaïnal
Concept & Development : Baudouin d'Aumeries
Co-Development & Prog : Marc-Olivier Méhu
Technical & hardware support : Manuel Goepfert

Contact : metmap@orbifly.com




SOURCES & CREDITS :

   NOAA       Earth
Advisory